This is the latest recevied weather packets stored in our database for station/object KE9ADS. If no packets are shown the sender has not sent any weather packets the latest 10 day(s).
| Time | Temp. | Humidity | Pressure | Rain* | Wind** | Luminosity | Snow |
|---|---|---|---|---|---|---|---|
| 1777316863 | 22.22° C | 72% | 1002.9 hPa | 0 mm | - | 684 W/m² | - |
| 1777316263 | 21.67° C | 73% | 1003.1 hPa | 0 mm | - | 600 W/m² | - |
| 1777315659 | 21.11° C | 75% | 1003.2 hPa | 0 mm | - | 597 W/m² | - |
| 1777315054 | 21.11° C | 75% | 1003.3 hPa | 0 mm | - | 432 W/m² | - |
| 1777314452 | 20.56° C | 77% | 1003.1 hPa | 0 mm | - | 511 W/m² | - |
| 1777313847 | 20.56° C | 76% | 1002.8 hPa | 0 mm | - | 472 W/m² | - |
| 1777313246 | 20° C | 77% | 1002.2 hPa | 0 mm | - | 478 W/m² | - |
| 1777312645 | 20° C | 76% | 1002.1 hPa | 0 mm | - | 542 W/m² | - |
| 1777312045 | 18.89° C | 78% | 1002.1 hPa | 0 mm | - | 586 W/m² | - |
| 1777311445 | 18.89° C | 79% | 1002.3 hPa | 0 mm | - | 351 W/m² | - |
| 1777310840 | 18.33° C | 79% | 1001.9 hPa | 0 mm | - | 295 W/m² | - |
| 1777310240 | 17.78° C | 80% | 1001.6 hPa | 0 mm | - | 246 W/m² | - |
| 1777309635 | 17.78° C | 83% | 1001.3 hPa | 0 mm | - | 227 W/m² | - |
| 1777309031 | 16.67° C | 86% | 1000.9 hPa | 0 mm | - | 216 W/m² | - |
| 1777308427 | 16.11° C | 90% | 1000.9 hPa | 0 mm | - | 195 W/m² | - |
| 1777307826 | 16.11° C | 92% | 1001.3 hPa | 0 mm | - | 174 W/m² | - |
| 1777307226 | 16.11° C | 91% | 1001.2 hPa | 0 mm | - | 101 W/m² | - |
| 1777306627 | 15.56° C | 95% | 1000.7 hPa | 0 mm | - | 75 W/m² | - |
| 1777306023 | 15° C | 97% | 1000.7 hPa | 0 mm | - | 57 W/m² | - |
| 1777305422 | 15° C | 97% | 1000.8 hPa | 1.78 mm | - | 40 W/m² | - |
| 1777304817 | 15° C | 97% | 1006.3 hPa | 6.1 mm | - | 24 W/m² | - |
| 1777304213 | 15° C | 97% | 1008.9 hPa | 10.16 mm | - | 13 W/m² | - |
| 1777303612 | 15° C | 96% | 1010.2 hPa | 15.49 mm | - | 9 W/m² | - |
| 1777303007 | 15° C | 96% | 1010.4 hPa | 11.94 mm | - | 5 W/m² | - |
| 1777302402 | 15° C | 96% | 1010.2 hPa | 10.67 mm | - | 4 W/m² | - |
* Rain latest hour (hover to see other rain measurements)
** Current wind speed in m/s (hover to see current wind gust speed)